Time;durP1;ratioP1;P1;durP2;ratioP2;P2;SDS_P1;SDS_P2;PMS_P1;PMS_P2;Temp;Humidity;BMP_temperature;BMP_pressure;BME280_temperature;BME280_humidity;BME280_pressure;Samples;Min_cycle;Max_cycle;Signal;HPM_P1;HPM_P2
2023/03/28 00:01:00;;;;;;;0.20;0.20;;;3.50;88.00;;;;;;4983506;28;20199;-82
2023/03/28 00:03:28;;;;;;;0.20;0.20;;;3.50;87.90;;;;;;4986288;28;20178;-82
2023/03/28 00:05:59;;;;;;;0.10;0.10;;;3.50;87.60;;;;;;4983875;28;20178;-82
2023/03/28 00:08:27;;;;;;;0.20;0.20;;;3.50;87.60;;;;;;4982410;28;20237;-83
2023/03/28 00:11:11;;;;;;;0.20;0.20;;;3.50;87.60;;;;;;4982558;28;20837;-83
2023/03/28 00:13:37;;;;;;;0.10;0.10;;;3.40;86.80;;;;;;4996095;28;20185;-82
2023/03/28 00:16:06;;;;;;;0.20;0.20;;;3.30;86.90;;;;;;4982408;28;20691;-83
2023/03/28 00:18:37;;;;;;;0.10;0.10;;;3.30;86.90;;;;;;4984903;28;20189;-83
2023/03/28 00:21:06;;;;;;;0.20;0.20;;;3.20;86.90;;;;;;4983567;28;20598;-82
2023/03/28 00:23:34;;;;;;;0.30;0.30;;;3.10;86.90;;;;;;4980028;28;20714;-83
2023/03/28 00:26:12;;;;;;;0.20;0.20;;;3.10;87.10;;;;;;4982243;28;21008;-81
2023/03/28 00:28:38;;;;;;;0.20;0.20;;;3.00;86.80;;;;;;4986108;28;20188;-84
2023/03/28 00:31:06;;;;;;;0.20;0.20;;;3.00;87.00;;;;;;4980747;28;20233;-83
2023/03/28 00:33:32;;;;;;;2.20;0.20;;;3.00;87.10;;;;;;4986480;28;20186;-82
2023/03/28 00:35:58;;;;;;;0.10;0.10;;;2.90;87.00;;;;;;4990402;28;20220;-81
2023/03/28 00:38:23;;;;;;;0.20;0.20;;;2.90;87.00;;;;;;4989960;28;20178;-83
2023/03/28 00:40:49;;;;;;;0.20;0.20;;;2.80;87.20;;;;;;4989766;28;20182;-82
2023/03/28 00:43:15;;;;;;;0.30;0.30;;;2.80;87.30;;;;;;4989018;28;20197;-82
2023/03/28 00:45:41;;;;;;;0.10;0.10;;;2.80;87.30;;;;;;4985244;28;20256;-81
2023/03/28 00:48:12;;;;;;;0.10;0.10;;;2.70;87.50;;;;;;4987118;28;20169;-82
2023/03/28 00:50:45;;;;;;;0.20;0.20;;;2.60;87.80;;;;;;4984114;28;20194;-82
2023/03/28 00:53:22;;;;;;;0.43;0.43;;;2.50;87.80;;;;;;4985008;28;20227;-81
2023/03/28 00:55:57;;;;;;;0.30;0.30;;;2.50;87.90;;;;;;4986509;28;20215;-82
2023/03/28 00:58:28;;;;;;;0.30;0.30;;;2.50;87.80;;;;;;4984378;28;20563;-82
2023/03/28 01:00:55;;;;;;;0.40;0.40;;;2.50;87.70;;;;;;4987961;28;20736;-80
2023/03/28 01:03:26;;;;;;;0.30;0.30;;;2.50;87.90;;;;;;4984218;28;20186;-81
2023/03/28 01:05:53;;;;;;;0.80;0.30;;;2.40;87.60;;;;;;4985859;28;20204;-83
2023/03/28 01:08:22;;;;;;;0.30;0.30;;;2.30;87.80;;;;;;4991193;28;20177;-81
2023/03/28 01:10:49;;;;;;;0.27;0.27;;;2.30;87.50;;;;;;4981779;28;20597;-82
2023/03/28 01:13:18;;;;;;;0.27;0.27;;;2.30;87.80;;;;;;4985196;28;20186;-82
2023/03/28 01:15:44;;;;;;;0.40;0.40;;;2.30;87.80;;;;;;4989739;28;20221;-81
2023/03/28 01:18:10;;;;;;;0.30;0.30;;;2.20;87.40;;;;;;4982616;28;20195;-82
2023/03/28 01:20:51;;;;;;;0.23;0.23;;;2.20;87.00;;;;;;4988023;28;20177;-82
2023/03/28 01:23:20;;;;;;;0.40;0.40;;;2.20;87.00;;;;;;4988570;28;20270;-81
2023/03/28 01:26:07;;;;;;;0.20;0.20;;;2.10;86.60;;;;;;4980187;28;20289;-82
2023/03/28 01:28:57;;;;;;;0.20;0.20;;;2.10;87.00;;;;;;4984414;28;20189;-81
2023/03/28 01:31:38;;;;;;;0.30;0.30;;;2.00;86.90;;;;;;4987563;28;20301;-81
2023/03/28 01:34:35;;;;;;;0.23;0.23;;;2.00;87.00;;;;;;4989667;28;20256;-81
2023/03/28 01:37:18;;;;;;;0.20;0.20;;;2.00;87.10;;;;;;4989784;28;20210;-81
2023/03/28 01:40:20;;;;;;;0.20;0.20;;;2.00;87.10;;;;;;4991923;28;20202;-81
2023/03/28 01:43:08;;;;;;;0.20;0.20;;;2.00;86.90;;;;;;4955159;28;20230;-82
2023/03/28 01:45:56;;;;;;;0.37;0.37;;;1.90;86.50;;;;;;4955984;28;20269;-81
2023/03/28 01:48:36;;;;;;;0.53;0.53;;;1.80;86.60;;;;;;4956173;28;20214;-82
2023/03/28 01:51:33;;;;;;;0.47;0.47;;;1.80;86.60;;;;;;4958794;28;20189;-82
2023/03/28 01:54:32;;;;;;;0.40;0.40;;;1.80;86.50;;;;;;4953625;29;20202;-82
2023/03/28 01:57:27;;;;;;;0.30;0.30;;;1.80;86.50;;;;;;4960670;28;20719;-81
2023/03/28 01:59:57;;;;;;;0.40;0.40;;;1.80;86.40;;;;;;4895595;29;20675;-81
2023/03/28 02:02:30;;;;;;;0.20;0.20;;;1.80;86.50;;;;;;4891470;29;20223;-80
2023/03/28 02:04:59;;;;;;;0.40;0.40;;;1.80;86.50;;;;;;4889667;29;20212;-81
2023/03/28 02:07:26;;;;;;;0.50;0.50;;;1.80;86.50;;;;;;4895950;29;20258;-81
2023/03/28 02:09:53;;;;;;;0.40;0.40;;;1.80;86.40;;;;;;4884032;29;20177;-80
2023/03/28 02:12:24;;;;;;;0.40;0.40;;;1.80;86.50;;;;;;4895301;29;20407;-81
2023/03/28 02:14:52;;;;;;;0.20;0.20;;;1.80;86.10;;;;;;4898689;29;20221;-81
2023/03/28 02:17:20;;;;;;;0.40;0.40;;;1.80;86.00;;;;;;4896363;29;20228;-81
2023/03/28 02:19:58;;;;;;;0.30;0.30;;;1.80;86.10;;;;;;4878357;29;20225;-81
2023/03/28 02:22:34;;;;;;;0.30;0.30;;;1.80;86.20;;;;;;4876351;29;20252;-82
2023/03/28 02:25:01;;;;;;;0.23;0.20;;;1.90;86.30;;;;;;4877149;29;20666;-80
2023/03/28 02:27:27;;;;;;;0.30;0.30;;;1.90;86.40;;;;;;4877153;29;20190;-81
2023/03/28 02:29:53;;;;;;;0.33;0.20;;;1.90;86.40;;;;;;4878241;29;20245;-82
2023/03/28 02:32:23;;;;;;;0.33;0.33;;;1.90;86.20;;;;;;4883082;29;20207;-81
2023/03/28 02:34:52;;;;;;;0.27;0.27;;;1.90;86.40;;;;;;4895387;29;20186;-81
2023/03/28 02:37:17;;;;;;;0.30;0.30;;;2.00;86.40;;;;;;4961165;28;20233;-82
2023/03/28 02:39:45;;;;;;;0.30;0.20;;;2.00;86.10;;;;;;4990095;28;20185;-81
2023/03/28 02:42:17;;;;;;;0.30;0.30;;;1.90;85.80;;;;;;4984810;28;20227;-80
2023/03/28 02:45:01;;;;;;;0.30;0.30;;;1.90;85.90;;;;;;4981045;28;20678;-82
2023/03/28 02:47:26;;;;;;;0.27;0.20;;;2.00;85.90;;;;;;4983704;28;20182;-83
2023/03/28 02:50:13;;;;;;;0.43;0.43;;;1.90;85.90;;;;;;4985350;28;20601;-82
2023/03/28 02:53:00;;;;;;;0.40;0.40;;;1.90;86.00;;;;;;4984179;28;20216;-82
2023/03/28 02:55:43;;;;;;;0.20;0.20;;;1.90;86.00;;;;;;4982228;28;20603;-83
2023/03/28 02:58:20;;;;;;;0.23;0.23;;;1.80;86.00;;;;;;4983693;28;20663;-83
2023/03/28 03:00:47;;;;;;;0.23;0.23;;;1.90;86.00;;;;;;4978680;28;20746;-82
2023/03/28 03:03:14;;;;;;;0.20;0.20;;;1.90;86.00;;;;;;4982974;28;20569;-82
2023/03/28 03:05:40;;;;;;;0.20;0.20;;;1.90;85.90;;;;;;4984233;28;20188;-83
2023/03/28 03:08:06;;;;;;;0.53;0.40;;;2.00;85.90;;;;;;4987050;28;20200;-82
2023/03/28 03:10:32;;;;;;;0.20;0.20;;;2.00;85.80;;;;;;4985648;28;20174;-82
2023/03/28 03:12:57;;;;;;;0.20;0.20;;;2.00;85.50;;;;;;4982559;28;20186;-82
2023/03/28 03:15:24;;;;;;;0.17;0.17;;;2.00;85.10;;;;;;4983600;28;20674;-82
2023/03/28 03:17:51;;;;;;;0.30;0.30;;;2.00;85.00;;;;;;4987114;28;20246;-82
2023/03/28 03:20:17;;;;;;;0.30;0.30;;;2.00;84.70;;;;;;4981749;28;20185;-81
2023/03/28 03:22:43;;;;;;;0.20;0.20;;;1.90;84.90;;;;;;4986206;28;20178;-81
2023/03/28 03:25:12;;;;;;;0.20;0.20;;;1.90;84.90;;;;;;4987161;28;20201;-81
2023/03/28 03:27:39;;;;;;;0.10;0.10;;;1.80;84.70;;;;;;4981619;28;20192;-82
2023/03/28 03:30:06;;;;;;;0.40;0.40;;;1.90;84.40;;;;;;4980528;28;20279;-82
2023/03/28 03:32:31;;;;;;;0.13;0.13;;;1.80;84.20;;;;;;4980055;28;20584;-82
2023/03/28 03:34:57;;;;;;;0.20;0.20;;;1.80;83.80;;;;;;4982210;28;20178;-82
2023/03/28 03:37:23;;;;;;;1.27;0.20;;;1.70;83.90;;;;;;4983448;28;20261;-82
2023/03/28 03:39:49;;;;;;;0.20;0.20;;;1.70;84.00;;;;;;4984059;28;20189;-82
2023/03/28 03:42:15;;;;;;;0.20;0.20;;;1.70;83.90;;;;;;4977587;28;20272;-83
2023/03/28 03:44:41;;;;;;;0.10;0.10;;;1.70;83.90;;;;;;4981888;28;20197;-80
2023/03/28 03:47:07;;;;;;;3.03;0.40;;;1.70;83.40;;;;;;4986332;28;20193;-82
2023/03/28 03:49:33;;;;;;;0.20;0.20;;;1.60;83.00;;;;;;4984914;28;21090;-82
2023/03/28 03:51:58;;;;;;;0.20;0.20;;;1.60;83.10;;;;;;4983240;28;20230;-83
2023/03/28 03:54:24;;;;;;;0.20;0.20;;;1.60;83.20;;;;;;4978237;28;20270;-84
2023/03/28 03:56:49;;;;;;;0.20;0.20;;;1.60;83.30;;;;;;4984768;28;20312;-80
2023/03/28 03:59:16;;;;;;;0.20;0.20;;;1.60;83.00;;;;;;4985153;28;20674;-81
2023/03/28 04:01:42;;;;;;;0.10;0.10;;;1.50;82.40;;;;;;4981168;28;20213;-81
2023/03/28 04:04:09;;;;;;;0.23;0.23;;;1.50;82.00;;;;;;4979010;28;20619;-78
2023/03/28 04:06:37;;;;;;;0.20;0.20;;;1.50;82.00;;;;;;4980744;28;20189;-77
2023/03/28 04:09:04;;;;;;;0.20;0.20;;;1.50;82.10;;;;;;4982176;28;20213;-78
2023/03/28 04:11:30;;;;;;;0.10;0.10;;;1.50;82.20;;;;;;4979619;28;20285;-78
2023/03/28 04:13:55;;;;;;;0.20;0.20;;;1.50;82.40;;;;;;4982258;28;20265;-78
2023/03/28 04:16:22;;;;;;;0.30;0.30;;;1.40;82.50;;;;;;4980836;28;20221;-77
2023/03/28 04:18:51;;;;;;;0.40;0.40;;;1.40;82.70;;;;;;4981527;28;20794;-78
2023/03/28 04:21:26;;;;;;;0.10;0.10;;;1.50;82.80;;;;;;4979179;28;20202;-78
2023/03/28 04:23:52;;;;;;;0.20;0.20;;;1.50;83.10;;;;;;4979538;28;20183;-75
2023/03/28 04:26:24;;;;;;;0.10;0.10;;;1.50;83.20;;;;;;4983204;28;20193;-78
2023/03/28 04:28:53;;;;;;;0.13;0.13;;;1.50;83.30;;;;;;4987761;28;20193;-82
2023/03/28 04:31:20;;;;;;;0.20;0.20;;;1.60;83.20;;;;;;4999317;28;20236;-82
2023/03/28 04:33:52;;;;;;;0.30;0.30;;;1.60;83.20;;;;;;4994218;28;20246;-82
2023/03/28 04:36:21;;;;;;;0.50;0.50;;;1.60;83.30;;;;;;4988351;28;20217;-79
2023/03/28 04:38:48;;;;;;;0.33;0.33;;;1.70;83.40;;;;;;4982905;28;20178;-79
2023/03/28 04:41:15;;;;;;;0.30;0.30;;;1.70;83.40;;;;;;4975662;28;20270;-75
2023/03/28 04:43:42;;;;;;;0.93;0.50;;;1.70;83.40;;;;;;4981011;28;20260;-76
2023/03/28 04:46:08;;;;;;;0.27;0.27;;;1.60;82.50;;;;;;4978063;28;20632;-76
2023/03/28 04:48:33;;;;;;;0.20;0.20;;;1.60;81.20;;;;;;4979624;28;20177;-76
2023/03/28 04:50:59;;;;;;;0.60;0.60;;;1.50;81.20;;;;;;4982652;28;20185;-83
2023/03/28 04:53:25;;;;;;;0.43;0.40;;;1.50;80.40;;;;;;4980508;28;20197;-74
2023/03/28 04:55:51;;;;;;;0.47;0.47;;;1.40;79.80;;;;;;4981548;28;20623;-74
2023/03/28 04:58:21;;;;;;;0.30;0.30;;;1.40;79.90;;;;;;4986505;28;20178;-75
2023/03/28 05:00:48;;;;;;;0.20;0.20;;;1.40;79.90;;;;;;4977174;28;20193;-76
2023/03/28 05:03:19;;;;;;;0.70;0.70;;;1.40;80.00;;;;;;4981444;28;20181;-76
2023/03/28 05:05:51;;;;;;;0.40;0.40;;;1.50;79.80;;;;;;4981613;28;20202;-76
2023/03/28 05:08:18;;;;;;;0.30;0.30;;;1.50;79.80;;;;;;4981162;28;20309;-75
2023/03/28 05:10:44;;;;;;;0.60;0.60;;;1.50;79.50;;;;;;4980615;28;20173;-75
2023/03/28 05:13:10;;;;;;;0.73;0.50;;;1.50;79.50;;;;;;4978236;28;20616;-75
2023/03/28 05:15:36;;;;;;;0.57;0.57;;;1.50;79.50;;;;;;4978862;28;20328;-75
2023/03/28 05:18:02;;;;;;;0.60;0.60;;;1.50;79.70;;;;;;4975056;28;20395;-75
2023/03/28 05:20:28;;;;;;;0.40;0.40;;;1.50;80.00;;;;;;4980207;28;20261;-75
2023/03/28 05:22:54;;;;;;;0.50;0.50;;;1.50;79.70;;;;;;4979906;28;20677;-75
2023/03/28 05:25:20;;;;;;;1.10;0.70;;;1.50;79.50;;;;;;4982180;28;20173;-75
2023/03/28 05:27:46;;;;;;;0.80;0.80;;;1.50;79.60;;;;;;4979419;28;20178;-75
2023/03/28 05:30:12;;;;;;;0.80;0.80;;;1.50;79.70;;;;;;4980018;28;20182;-75
2023/03/28 05:32:38;;;;;;;0.60;0.60;;;1.50;79.80;;;;;;4981596;28;20693;-75
2023/03/28 05:35:06;;;;;;;0.50;0.50;;;1.50;80.00;;;;;;4979928;28;20256;-75
2023/03/28 05:37:32;;;;;;;0.60;0.60;;;1.50;79.80;;;;;;4979199;28;20202;-76
2023/03/28 05:39:58;;;;;;;1.00;1.00;;;1.50;79.40;;;;;;4980722;28;20618;-76
2023/03/28 05:42:24;;;;;;;0.70;0.60;;;1.50;79.40;;;;;;4984771;28;20193;-76
2023/03/28 05:44:49;;;;;;;0.37;0.37;;;1.50;79.40;;;;;;4977455;28;20204;-74
2023/03/28 05:47:15;;;;;;;0.60;0.60;;;1.50;79.50;;;;;;4980954;28;20272;-74
2023/03/28 05:49:41;;;;;;;0.50;0.50;;;1.50;79.70;;;;;;4975739;28;20185;-73
2023/03/28 05:52:07;;;;;;;0.70;0.70;;;1.40;79.80;;;;;;4975287;28;20707;-74
2023/03/28 05:54:33;;;;;;;0.40;0.40;;;1.40;79.90;;;;;;4981018;28;20235;-74
2023/03/28 05:56:58;;;;;;;0.60;0.60;;;1.40;79.80;;;;;;4980306;28;20706;-75
2023/03/28 05:59:24;;;;;;;0.80;0.70;;;1.40;79.60;;;;;;4981341;28;20200;-75
2023/03/28 06:01:51;;;;;;;0.60;0.60;;;1.40;79.70;;;;;;4981021;28;20185;-74
2023/03/28 06:04:18;;;;;;;0.40;0.40;;;1.40;78.80;;;;;;4979490;28;20190;-75
2023/03/28 06:06:44;;;;;;;0.47;0.47;;;1.40;79.00;;;;;;4982458;28;20263;-76
2023/03/28 06:09:11;;;;;;;5.97;0.80;;;1.40;79.00;;;;;;4980476;28;20735;-76
2023/03/28 06:11:36;;;;;;;0.47;0.47;;;1.40;79.10;;;;;;4980906;28;20182;-74
2023/03/28 06:14:02;;;;;;;2.73;0.87;;;1.40;78.80;;;;;;4979404;28;20188;-75
2023/03/28 06:16:27;;;;;;;0.70;0.70;;;1.40;79.00;;;;;;4975943;28;20699;-75
2023/03/28 06:18:53;;;;;;;0.90;0.90;;;1.40;79.10;;;;;;4980091;28;20187;-74
2023/03/28 06:21:19;;;;;;;0.57;0.57;;;1.40;79.70;;;;;;4978454;28;20851;-74
2023/03/28 06:23:45;;;;;;;0.63;0.63;;;1.40;80.20;;;;;;4978410;28;20178;-74
2023/03/28 06:26:11;;;;;;;0.50;0.50;;;1.40;79.50;;;;;;4979733;28;20585;-75
2023/03/28 06:28:37;;;;;;;0.83;0.83;;;1.40;79.80;;;;;;4981394;28;20192;-75
2023/03/28 06:31:02;;;;;;;1.63;0.67;;;1.50;80.20;;;;;;4983136;28;20190;-75
2023/03/28 06:33:28;;;;;;;0.30;0.30;;;1.60;80.30;;;;;;4980638;28;20556;-75
2023/03/28 06:35:54;;;;;;;0.60;0.60;;;1.60;80.10;;;;;;4981381;28;20205;-76
2023/03/28 06:38:19;;;;;;;0.70;0.70;;;1.60;78.60;;;;;;4976149;28;20224;-74
2023/03/28 06:40:45;;;;;;;1.03;0.60;;;1.60;77.60;;;;;;4977281;28;20185;-74
2023/03/28 06:43:11;;;;;;;0.70;0.70;;;1.70;77.40;;;;;;4979178;28;20180;-74
2023/03/28 06:45:37;;;;;;;0.80;0.80;;;1.70;76.90;;;;;;4977267;28;20226;-74
2023/03/28 06:48:03;;;;;;;1.10;0.90;;;1.70;76.40;;;;;;4980818;28;20181;-75
2023/03/28 06:50:28;;;;;;;0.70;0.70;;;1.70;76.20;;;;;;4977575;28;20182;-74
2023/03/28 06:52:54;;;;;;;0.83;0.83;;;1.70;76.50;;;;;;4983368;28;20200;-75
2023/03/28 06:55:21;;;;;;;0.80;0.80;;;1.70;77.00;;;;;;4976491;28;20186;-75
2023/03/28 06:57:47;;;;;;;0.57;0.57;;;1.80;77.20;;;;;;4978276;28;20182;-74
2023/03/28 07:00:13;;;;;;;0.70;0.70;;;1.80;77.20;;;;;;4983737;28;20181;-75
2023/03/28 07:02:39;;;;;;;0.50;0.50;;;1.80;77.30;;;;;;4979466;28;20229;-75
2023/03/28 07:05:05;;;;;;;0.57;0.57;;;1.80;77.30;;;;;;4979193;28;20208;-75
2023/03/28 07:07:31;;;;;;;0.93;0.80;;;1.70;77.40;;;;;;4980948;28;20185;-74
2023/03/28 07:09:57;;;;;;;0.90;0.90;;;1.70;77.70;;;;;;4977248;28;20542;-74
2023/03/28 07:12:22;;;;;;;0.80;0.80;;;1.70;77.90;;;;;;4981109;28;20190;-74
2023/03/28 07:14:48;;;;;;;0.83;0.60;;;1.60;78.20;;;;;;4974764;28;20175;-74
2023/03/28 07:17:14;;;;;;;0.70;0.70;;;1.70;78.20;;;;;;4980773;28;20221;-74
2023/03/28 07:19:39;;;;;;;1.67;0.77;;;1.80;78.40;;;;;;4978558;28;20948;-74
2023/03/28 07:22:05;;;;;;;2.30;0.70;;;1.80;77.90;;;;;;4980835;28;20185;-75
2023/03/28 07:24:31;;;;;;;0.67;0.67;;;1.90;77.60;;;;;;4974632;28;20174;-75
2023/03/28 07:26:57;;;;;;;1.50;0.73;;;1.90;76.80;;;;;;4976452;28;20268;-74
2023/03/28 07:29:22;;;;;;;0.67;0.60;;;2.00;75.90;;;;;;4979362;28;20667;-75
2023/03/28 07:31:48;;;;;;;0.50;0.50;;;2.00;75.10;;;;;;4979023;28;20599;-75
2023/03/28 07:34:17;;;;;;;0.63;0.63;;;2.00;75.10;;;;;;4975450;28;20197;-75
2023/03/28 07:36:43;;;;;;;0.70;0.67;;;2.10;75.00;;;;;;4979122;28;20212;-75
2023/03/28 07:39:09;;;;;;;0.70;0.60;;;2.00;74.70;;;;;;4975594;28;20191;-74
2023/03/28 07:41:34;;;;;;;0.70;0.70;;;2.00;74.80;;;;;;4979618;28;20616;-75
2023/03/28 07:44:00;;;;;;;1.57;0.70;;;2.00;74.70;;;;;;4974727;28;20190;-75
2023/03/28 07:46:26;;;;;;;0.80;0.80;;;2.00;75.00;;;;;;4974126;28;20214;-75
2023/03/28 07:48:54;;;;;;;0.80;0.80;;;2.00;74.70;;;;;;4977315;28;20178;-74
2023/03/28 07:51:20;;;;;;;0.73;0.73;;;2.10;74.90;;;;;;4978112;28;20177;-74
2023/03/28 07:53:46;;;;;;;1.00;0.70;;;2.10;74.80;;;;;;4979219;28;20189;-75
2023/03/28 07:56:12;;;;;;;0.80;0.80;;;2.10;74.60;;;;;;4981264;28;20209;-75
2023/03/28 07:58:39;;;;;;;4.23;0.80;;;2.10;74.60;;;;;;4973714;28;20959;-75
2023/03/28 08:01:08;;;;;;;0.87;0.87;;;2.10;74.50;;;;;;4977892;28;20269;-74
2023/03/28 08:03:34;;;;;;;1.10;0.90;;;2.10;74.30;;;;;;4977754;28;20184;-74
2023/03/28 08:06:04;;;;;;;0.60;0.60;;;2.10;74.20;;;;;;4977539;28;20183;-74
2023/03/28 08:08:31;;;;;;;0.60;0.60;;;2.10;74.20;;;;;;4976837;28;20718;-76
2023/03/28 08:10:57;;;;;;;0.67;0.67;;;2.10;74.50;;;;;;4976925;28;20189;-73
2023/03/28 08:13:23;;;;;;;0.37;0.37;;;2.00;74.40;;;;;;4977454;28;20209;-74
2023/03/28 08:15:50;;;;;;;2.10;1.23;;;1.90;75.00;;;;;;4977389;28;20335;-74
2023/03/28 08:18:20;;;;;;;0.47;0.47;;;2.00;75.80;;;;;;4979265;28;20190;-73
2023/03/28 08:20:47;;;;;;;0.50;0.50;;;1.90;76.20;;;;;;4974861;28;20590;-74
2023/03/28 08:23:13;;;;;;;1.10;1.00;;;1.90;76.90;;;;;;4978009;28;20181;-74
2023/03/28 08:25:38;;;;;;;0.57;0.57;;;2.00;77.20;;;;;;4977157;28;20265;-73
2023/03/28 08:28:04;;;;;;;0.53;0.53;;;1.90;77.40;;;;;;4978274;28;20182;-74
2023/03/28 08:30:30;;;;;;;0.97;0.60;;;2.00;77.70;;;;;;4973822;28;20187;-73
2023/03/28 08:32:55;;;;;;;0.50;0.50;;;2.10;77.30;;;;;;4979203;28;20191;-75
2023/03/28 08:35:21;;;;;;;0.77;0.77;;;2.10;77.30;;;;;;4980173;28;20241;-75
2023/03/28 08:37:49;;;;;;;0.80;0.80;;;2.10;76.80;;;;;;4976289;28;20174;-76
2023/03/28 08:40:17;;;;;;;0.80;0.80;;;2.10;76.80;;;;;;4976886;28;20183;-74
2023/03/28 08:42:56;;;;;;;0.43;0.43;;;2.10;75.50;;;;;;4979886;28;20192;-77
2023/03/28 08:45:50;;;;;;;0.60;0.60;;;2.20;74.70;;;;;;4977925;28;20911;-75
2023/03/28 08:48:25;;;;;;;0.77;0.77;;;2.20;74.60;;;;;;4980178;28;20565;-75
2023/03/28 08:51:11;;;;;;;0.50;0.50;;;2.30;75.00;;;;;;4978743;28;20446;-76
2023/03/28 08:53:42;;;;;;;0.57;0.57;;;2.40;75.10;;;;;;4980299;28;20210;-75
2023/03/28 08:56:10;;;;;;;0.50;0.50;;;2.40;74.20;;;;;;4976295;28;20217;-75
2023/03/28 08:59:06;;;;;;;0.70;0.70;;;2.50;73.80;;;;;;4982208;28;20301;-75
2023/03/28 09:01:32;;;;;;;0.67;0.67;;;2.40;73.10;;;;;;4981681;28;20186;-75
2023/03/28 09:04:01;;;;;;;2.20;0.40;;;2.40;73.40;;;;;;4983985;28;20178;-75
2023/03/28 09:06:37;;;;;;;0.70;0.70;;;2.40;73.50;;;;;;4979703;28;20186;-74
2023/03/28 09:09:15;;;;;;;0.80;0.70;;;2.40;73.80;;;;;;4979294;28;20260;-74
2023/03/28 09:12:01;;;;;;;0.50;0.50;;;2.40;73.70;;;;;;4976945;28;20281;-75
2023/03/28 09:14:48;;;;;;;1.00;0.87;;;2.40;73.80;;;;;;4984140;28;20193;-75
2023/03/28 09:17:40;;;;;;;0.80;0.80;;;2.50;74.00;;;;;;4979163;28;20309;-76
2023/03/28 09:20:24;;;;;;;0.57;0.57;;;2.60;74.80;;;;;;4973834;28;20198;-75
2023/03/28 09:23:38;;;;;;;0.50;0.50;;;2.60;75.30;;;;;;4983408;28;20188;-76
2023/03/28 09:26:19;;;;;;;0.53;0.53;;;2.50;75.90;;;;;;4942821;28;20968;-76
2023/03/28 09:28:59;;;;;;;2.63;0.70;;;2.40;76.80;;;;;;4943434;29;20237;-76
2023/03/28 09:32:03;;;;;;;0.50;0.50;;;2.30;77.40;;;;;;4945265;28;20199;-75
2023/03/28 09:34:37;;;;;;;0.63;0.63;;;2.40;75.90;;;;;;4908882;29;20225;-75
2023/03/28 09:37:34;;;;;;;0.60;0.60;;;2.40;75.50;;;;;;4907421;29;20224;-76
2023/03/28 09:40:16;;;;;;;0.67;0.57;;;2.50;75.30;;;;;;4911057;29;20207;-76
2023/03/28 09:43:00;;;;;;;0.70;0.70;;;2.50;75.40;;;;;;4909163;29;20188;-76
2023/03/28 09:46:01;;;;;;;0.80;0.80;;;2.50;75.40;;;;;;4911356;29;20215;-76
2023/03/28 09:48:35;;;;;;;0.70;0.70;;;2.40;76.10;;;;;;4910446;29;20188;-76
2023/03/28 09:51:03;;;;;;;0.80;0.80;;;2.40;76.70;;;;;;4906933;29;20574;-76
2023/03/28 09:53:30;;;;;;;0.90;0.90;;;2.60;76.50;;;;;;4908913;29;20228;-76
2023/03/28 09:56:36;;;;;;;1.00;1.00;;;2.60;75.30;;;;;;4908520;29;20228;-76
2023/03/28 09:59:04;;;;;;;0.60;0.60;;;2.70;75.70;;;;;;4908836;29;20626;-76
2023/03/28 10:01:45;;;;;;;0.70;0.70;;;2.70;75.50;;;;;;4909075;29;20193;-76
2023/03/28 10:04:17;;;;;;;0.50;0.50;;;2.60;75.30;;;;;;4938277;28;20198;-76
2023/03/28 10:06:44;;;;;;;0.73;0.73;;;2.70;74.20;;;;;;4939779;29;20192;-77
2023/03/28 10:09:23;;;;;;;0.60;0.60;;;2.70;74.20;;;;;;4968419;28;20200;-76
2023/03/28 10:11:58;;;;;;;0.60;0.60;;;2.70;73.20;;;;;;4979049;28;20185;-75
2023/03/28 10:14:34;;;;;;;0.70;0.70;;;2.80;72.60;;;;;;4982819;28;20276;-76
2023/03/28 10:17:03;;;;;;;1.27;0.83;;;3.20;71.90;;;;;;4977537;28;20245;-76
2023/03/28 10:19:36;;;;;;;1.70;1.27;;;3.80;71.40;;;;;;4981660;28;20265;-76
2023/03/28 10:22:25;;;;;;;0.90;0.90;;;4.30;70.10;;;;;;4977451;28;20190;-77
2023/03/28 10:24:51;;;;;;;0.87;0.87;;;4.70;69.10;;;;;;4980077;28;20181;-77
2023/03/28 10:27:30;;;;;;;0.77;0.77;;;4.70;67.60;;;;;;4980439;28;20189;-76
2023/03/28 10:30:06;;;;;;;1.80;0.80;;;4.40;67.20;;;;;;4980803;28;20189;-75
2023/03/28 10:32:31;;;;;;;0.60;0.60;;;4.20;67.50;;;;;;4975313;28;20190;-76
2023/03/28 10:35:22;;;;;;;0.80;0.80;;;4.10;68.00;;;;;;4978802;28;20185;-78
2023/03/28 10:37:53;;;;;;;0.80;0.80;;;4.00;68.30;;;;;;4981913;28;20553;-75
2023/03/28 10:40:19;;;;;;;1.13;0.90;;;4.00;68.90;;;;;;4977475;28;20223;-75
2023/03/28 10:42:49;;;;;;;2.30;1.07;;;4.00;69.30;;;;;;4973655;28;20187;-76
2023/03/28 10:45:41;;;;;;;0.60;0.60;;;4.10;69.10;;;;;;4980742;28;20280;-77
2023/03/28 10:48:17;;;;;;;0.80;0.80;;;4.10;69.20;;;;;;4981108;28;20186;-77
2023/03/28 10:50:46;;;;;;;0.50;0.50;;;3.90;69.20;;;;;;4980171;28;20710;-75
2023/03/28 10:53:44;;;;;;;0.90;0.90;;;3.80;69.30;;;;;;4976001;28;20205;-75
2023/03/28 10:56:27;;;;;;;0.53;0.53;;;3.90;69.80;;;;;;4938821;28;20231;-76
2023/03/28 10:59:25;;;;;;;0.37;0.37;;;4.40;69.50;;;;;;4940187;28;20179;-76
2023/03/28 11:01:53;;;;;;;0.60;0.60;;;5.00;68.90;;;;;;4939617;29;20641;-75
2023/03/28 11:04:27;;;;;;;0.63;0.60;;;5.50;68.10;;;;;;4923481;29;20584;-75
2023/03/28 11:07:20;;;;;;;0.73;0.73;;;6.00;67.70;;;;;;4939907;29;20221;-77
2023/03/28 11:09:56;;;;;;;0.80;0.80;;;6.50;66.60;;;;;;4919020;29;20192;-76
2023/03/28 11:12:50;;;;;;;0.60;0.60;;;6.60;65.70;;;;;;4919760;29;20200;-76
2023/03/28 11:15:32;;;;;;;0.90;0.90;;;6.70;64.80;;;;;;4919028;29;20282;-75
2023/03/28 11:18:15;;;;;;;0.80;0.80;;;6.70;64.10;;;;;;4916553;29;20283;-76
2023/03/28 11:20:51;;;;;;;0.97;0.97;;;6.80;63.00;;;;;;4901886;29;20203;-77
2023/03/28 11:23:27;;;;;;;0.93;0.93;;;7.20;62.30;;;;;;4897466;29;20624;-77
2023/03/28 11:26:19;;;;;;;1.00;1.00;;;7.30;60.90;;;;;;4918933;29;20230;-76
2023/03/28 11:28:47;;;;;;;1.00;0.73;;;7.60;60.90;;;;;;4919749;29;20195;-74
2023/03/28 11:31:27;;;;;;;1.07;1.07;;;7.80;60.30;;;;;;4916723;29;20196;-75
2023/03/28 11:34:20;;;;;;;0.90;0.90;;;7.70;60.00;;;;;;4954826;28;20200;-74
2023/03/28 11:36:58;;;;;;;1.17;1.00;;;7.20;59.40;;;;;;4956652;28;20225;-74
2023/03/28 11:39:34;;;;;;;0.87;0.87;;;6.70;59.60;;;;;;4953653;28;20249;-74
2023/03/28 11:42:05;;;;;;;0.87;0.87;;;6.40;60.00;;;;;;4960097;28;20198;-77
2023/03/28 11:44:38;;;;;;;0.70;0.70;;;6.40;60.90;;;;;;4955597;28;20696;-76
2023/03/28 11:47:20;;;;;;;0.83;0.83;;;6.90;61.00;;;;;;4975568;28;20190;-75
2023/03/28 11:50:06;;;;;;;0.93;0.80;;;7.00;59.30;;;;;;4981334;28;20209;-77
2023/03/28 11:52:44;;;;;;;1.10;1.10;;;7.10;59.70;;;;;;4978463;28;20224;-78
2023/03/28 11:55:22;;;;;;;1.03;1.03;;;7.30;59.40;;;;;;4977308;28;20186;-78
2023/03/28 11:58:12;;;;;;;0.80;0.80;;;7.50;57.90;;;;;;4977982;28;20193;-79
2023/03/28 12:00:49;;;;;;;1.67;0.93;;;7.50;57.70;;;;;;4975566;28;20245;-78
2023/03/28 12:03:30;;;;;;;1.37;0.80;;;7.60;57.60;;;;;;4977007;28;20236;-78
2023/03/28 12:06:11;;;;;;;1.43;0.90;;;7.80;56.70;;;;;;4981287;28;20264;-78
2023/03/28 12:08:46;;;;;;;0.70;0.70;;;7.90;57.10;;;;;;4975311;28;20682;-78
2023/03/28 12:11:46;;;;;;;1.03;1.03;;;7.70;56.50;;;;;;4978745;28;20165;-78
2023/03/28 12:14:29;;;;;;;1.10;0.93;;;7.60;57.10;;;;;;4920110;29;20693;-78
2023/03/28 12:16:57;;;;;;;0.97;0.97;;;7.80;57.30;;;;;;4922436;29;20259;-76
2023/03/28 12:19:37;;;;;;;0.83;0.83;;;8.00;57.20;;;;;;4924566;29;20230;-77
2023/03/28 12:22:16;;;;;;;1.80;0.83;;;8.50;56.70;;;;;;4920649;29;20606;-76
2023/03/28 12:24:56;;;;;;;0.83;0.83;;;8.90;56.40;;;;;;4917758;29;20192;-76
2023/03/28 12:27:35;;;;;;;1.17;1.17;;;9.20;55.30;;;;;;4922552;29;20273;-76
2023/03/28 12:30:15;;;;;;;1.10;1.00;;;9.50;54.10;;;;;;4920324;29;20188;-76
2023/03/28 12:32:51;;;;;;;1.47;0.90;;;9.70;53.60;;;;;;4922180;29;20642;-76
2023/03/28 12:35:31;;;;;;;0.93;0.93;;;9.70;53.00;;;;;;4923980;29;20203;-76
2023/03/28 12:38:17;;;;;;;1.20;1.20;;;9.50;53.40;;;;;;4922761;29;20303;-76
2023/03/28 12:41:09;;;;;;;1.20;1.10;;;9.00;53.20;;;;;;4923114;29;20186;-77
2023/03/28 12:44:09;;;;;;;0.70;0.70;;;8.30;53.90;;;;;;4922487;29;20595;-76
2023/03/28 12:46:44;;;;;;;1.43;1.13;;;7.80;55.60;;;;;;4921125;29;20271;-76
2023/03/28 12:49:16;;;;;;;0.93;0.93;;;8.00;56.30;;;;;;4921336;29;20203;-76
2023/03/28 12:51:47;;;;;;;0.97;0.90;;;8.00;55.00;;;;;;4979682;28;20193;-76
2023/03/28 12:54:16;;;;;;;0.90;0.90;;;8.20;54.60;;;;;;4980745;28;20186;-76
2023/03/28 12:56:46;;;;;;;4.20;1.00;;;8.30;54.00;;;;;;4982433;28;20206;-76
2023/03/28 12:59:37;;;;;;;0.83;0.83;;;8.60;53.50;;;;;;4984243;28;20208;-76
2023/03/28 13:02:35;;;;;;;1.60;1.00;;;9.10;53.10;;;;;;4948769;29;20630;-76
2023/03/28 13:05:23;;;;;;;0.90;0.80;;;9.10;51.80;;;;;;4930973;29;20327;-77
2023/03/28 13:08:03;;;;;;;0.67;0.67;;;9.20;52.00;;;;;;4946648;28;20207;-76
2023/03/28 13:10:37;;;;;;;0.77;0.77;;;9.50;52.20;;;;;;4948244;29;20187;-77
2023/03/28 13:13:21;;;;;;;1.07;1.07;;;9.50;51.70;;;;;;4946211;28;20199;-76
2023/03/28 13:15:57;;;;;;;0.87;0.87;;;9.30;51.50;;;;;;4948577;28;20610;-77
2023/03/28 13:18:26;;;;;;;1.03;0.97;;;9.00;52.10;;;;;;4932631;29;20186;-76
2023/03/28 13:20:53;;;;;;;0.80;0.80;;;8.50;52.00;;;;;;4929683;29;20737;-76
2023/03/28 13:23:33;;;;;;;0.60;0.60;;;8.10;52.90;;;;;;4947544;28;20219;-76
2023/03/28 13:26:04;;;;;;;1.53;0.80;;;7.90;53.60;;;;;;4946821;28;20197;-76